Bismarck, North Dakota
Current Conditions -  °F | °C
As of 12:52 PM on Saturday 25 Oct 2014 (Local Time) from KBIS Reporting Station
Clear Clear  
Wind Chill: 16°   Ceiling: Unl
Heat Index: 16°   Visibility: 10mi
Dew Point:   Wind: 6mph
Humidity: 36%   Direction: 110°ESE
Pressure: 30.15"   Gusts: NA
Location:  46.81°N, 100.77°W
Report Text: KBIS 251752Z 11005KT 10SM CLR 16/01 A3015 RMK AO2 SLP215 T01560006 10156 20022 58008
Loading
Personal Weather Stations






























Interactive Weather Map New forecast layout! Learn more

10-Day Weather Forecast

Advertisements
Track Severe Weather on mobile